M I D A S
Marine Information and Data Acquisition System
Tripno 908 of the Zeeleeuw from 2005-06-02 09:22:34 to 2005-06-02 13:49:12
Back to CruiseResearch ActivitiesStationsMapUnderway DataData graphs

EquipmentUnitsComment
TimeDGPSUTC
LatitudeDGPSDM.mWGS84
LongitudeDGPSDM.mWGS84
HeadingGyrodeg 
SOGDGPSknotsSpeed over ground
COGDGPSdegCourse over ground
DepthEcho soundermeters200 kHz
Missing or incorrect values are displayed as -999
Navigation data collected by the RV Zeeleeuw from 2005-06-02 06:40:46 to 2005-06-02 13:50:30
Time Latitude Longitude Heading SOG COG Depth
2005-06-02 06:41:51 51°13.597 2°56.109 126.2 -999 56 -999
2005-06-02 06:42:51 51°13.597 2°56.108 126.2 -999 1 -999
2005-06-02 06:43:51 51°13.598 2°56.108 126.8 -999 301 -999
2005-06-02 06:44:51 51°13.599 2°56.108 126.7 -999 330 -999
2005-06-02 06:45:51 51°13.599 2°56.108 127.2 -999 25 -999
2005-06-02 06:46:50 51°13.599 2°56.109 125.3 -999 126 -999
2005-06-02 06:47:50 51°13.599 2°56.109 127.5 -999 250 -999
2005-06-02 06:48:51 51°13.599 2°56.108 127.5 -999 310 -999
2005-06-02 06:49:50 51°13.599 2°56.108 126.9 -999 339 -999
2005-06-02 06:50:51 51°13.599 2°56.108 125.6 -999 119 -999
2005-06-02 06:51:50 51°13.598 2°56.108 125.7 -999 164 -999
2005-06-02 06:52:51 51°13.599 2°56.108 127.8 -999 349 -999
2005-06-02 06:53:50 51°13.599 2°56.108 126.3 -999 266 -999
2005-06-02 06:54:50 51°13.599 2°56.108 127.1 -999 166 -999
2005-06-02 06:55:50 51°13.599 2°56.108 126.2 -999 60 -999
2005-06-02 06:56:50 51°13.599 2°56.108 127.4 -999 44 -999
2005-06-02 06:57:50 51°13.599 2°56.107 127.1 -999 347 -999
2005-06-02 06:58:50 51°13.599 2°56.108 126.7 -999 142 -999
2005-06-02 06:59:50 51°13.598 2°56.108 126.8 -999 301 -999
2005-06-02 07:00:50 51°13.598 2°56.108 126.4 -999 330 -999
2005-06-02 07:01:50 51°13.598 2°56.108 127.2 -999 320 -999
2005-06-02 07:02:50 51°13.598 2°56.108 126.9 -999 3 -999
2005-06-02 07:03:50 51°13.598 2°56.108 126.8 -999 334 -999
2005-06-02 07:04:51 51°13.599 2°56.108 126.6 -999 199 -999
2005-06-02 07:05:51 51°13.599 2°56.108 127 -999 54 -999
2005-06-02 07:06:51 51°13.6 2°56.108 126.7 -999 72 -999
2005-06-02 07:07:51 51°13.6 2°56.108 127 -999 245 -999
2005-06-02 07:08:51 51°13.6 2°56.109 126.9 -999 56 -999
2005-06-02 07:09:50 51°13.599 2°56.109 127.5 -999 83 -999
2005-06-02 07:10:51 51°13.599 2°56.109 127.5 -999 198 -999
2005-06-02 07:11:51 51°13.599 2°56.109 127.4 -999 244 -999
2005-06-02 07:12:51 51°13.599 2°56.108 127.1 0.1 183 -999
2005-06-02 07:13:51 51°13.599 2°56.108 127 -999 178 -999
2005-06-02 07:14:50 51°13.599 2°56.107 127.6 -999 200 -999
2005-06-02 07:15:50 51°13.599 2°56.108 127.4 -999 65 -999
2005-06-02 07:16:51 51°13.599 2°56.108 127.6 -999 287 -999
2005-06-02 07:17:51 51°13.599 2°56.107 127.7 -999 286 -999
2005-06-02 07:18:51 51°13.599 2°56.107 127.4 -999 276 -999
2005-06-02 07:19:51 51°13.599 2°56.108 127.1 -999 106 -999
2005-06-02 07:20:51 51°13.599 2°56.108 127 -999 32 -999
2005-06-02 07:21:51 51°13.599 2°56.108 127.3 -999 225 -999
2005-06-02 07:22:51 51°13.599 2°56.108 127.3 -999 278 -999
2005-06-02 07:23:51 51°13.599 2°56.108 127 -999 224 -999
2005-06-02 07:24:51 51°13.599 2°56.109 127.1 -999 228 -999
2005-06-02 07:25:50 51°13.599 2°56.109 126.2 -999 204 -999
2005-06-02 07:26:51 51°13.598 2°56.109 127 0.1 200 -999
2005-06-02 07:27:51 51°13.599 2°56.109 127 0.1 15 -999
2005-06-02 07:28:51 51°13.598 2°56.108 126.9 0.1 154 -999
2005-06-02 07:29:51 51°13.599 2°56.108 127.4 -999 62 -999
2005-06-02 07:30:51 51°13.598 2°56.108 127.3 -999 233 -999
2005-06-02 07:31:51 51°13.598 2°56.108 127 -999 104 -999
2005-06-02 07:32:51 51°13.598 2°56.107 127.7 -999 104 -999
2005-06-02 07:33:51 51°13.598 2°56.108 127.6 0.1 356 -999
2005-06-02 07:34:50 51°13.598 2°56.108 127.1 -999 180 -999
2005-06-02 07:35:50 51°13.598 2°56.107 127.7 -999 119 -999
2005-06-02 07:36:51 51°13.598 2°56.107 127.4 -999 160 -999
2005-06-02 07:37:51 51°13.598 2°56.108 127.4 0.1 1 -999
2005-06-02 07:38:51 51°13.599 2°56.108 127.5 -999 283 -999
2005-06-02 07:39:50 51°13.601 2°56.109 127.5 0.1 129 -999
2005-06-02 07:40:48 51°13.598 2°56.107 127.2 -999 210 8.6
2005-06-02 07:41:49 51°13.597 2°56.106 127 -999 75 8.6
2005-06-02 07:42:49 51°13.597 2°56.106 126.9 -999 3 8.7
2005-06-02 07:43:49 51°13.596 2°56.106 126.9 0.1 4 8.7
2005-06-02 07:44:49 51°13.597 2°56.106 126.6 -999 100 8.6
2005-06-02 07:45:49 51°13.597 2°56.107 127.3 0.1 10 8.6
2005-06-02 07:46:49 51°13.598 2°56.107 126.6 -999 331 8.6
2005-06-02 07:47:49 51°13.598 2°56.108 127 -999 332 8.6
2005-06-02 07:48:49 51°13.599 2°56.109 127.4 -999 206 8.7
2005-06-02 07:49:49 51°13.599 2°56.109 127.1 -999 197 8.7
2005-06-02 07:50:49 51°13.598 2°56.109 126.8 -999 170 8.7
2005-06-02 07:51:48 51°13.599 2°56.109 127.3 -999 328 8.8
2005-06-02 07:52:49 51°13.599 2°56.108 127.1 -999 46 8.8
2005-06-02 07:53:49 51°13.599 2°56.109 127.1 -999 148 8.8
2005-06-02 07:54:49 51°13.599 2°56.109 127.3 0.1 345 8.8
2005-06-02 07:55:49 51°13.598 2°56.11 127.4 -999 154 8.7
2005-06-02 07:56:49 51°13.599 2°56.11 127.3 -999 136 8.7
2005-06-02 07:57:49 51°13.598 2°56.108 127 -999 213 8.7
2005-06-02 07:58:49 51°13.598 2°56.107 127.1 -999 204 8.7
2005-06-02 07:59:49 51°13.598 2°56.108 127 -999 133 8.7
2005-06-02 08:00:49 51°13.598 2°56.108 127 -999 63 8.7
2005-06-02 08:01:49 51°13.598 2°56.109 126.8 0.1 337 8.7
2005-06-02 08:02:49 51°13.597 2°56.108 127.1 0.1 181 8.7
2005-06-02 08:03:49 51°13.597 2°56.108 127 -999 147 -999
2005-06-02 08:04:49 51°13.598 2°56.11 127 -999 81 8.8
2005-06-02 08:05:49 51°13.598 2°56.108 126.9 -999 354 8.8
2005-06-02 08:06:49 51°13.598 2°56.108 126.8 -999 164 8.7
2005-06-02 08:07:49 51°13.597 2°56.108 126.6 0.1 191 8.8
2005-06-02 08:08:49 51°13.598 2°56.108 126.7 -999 347 8.7
2005-06-02 08:09:49 51°13.597 2°56.108 126.6 0.1 187 8.8
2005-06-02 08:10:49 51°13.598 2°56.108 126.8 -999 117 8.8
2005-06-02 08:11:49 51°13.597 2°56.108 127 -999 201 8.8
2005-06-02 08:12:49 51°13.598 2°56.108 127 -999 320 8.8
2005-06-02 08:13:49 51°13.598 2°56.108 126.6 -999 224 8.8
2005-06-02 08:14:49 51°13.598 2°56.108 126.9 -999 96 8.8
2005-06-02 08:15:49 51°13.599 2°56.108 127 0.1 5 8.8
2005-06-02 08:16:49 51°13.599 2°56.109 127 -999 38 8.8
2005-06-02 08:17:49 51°13.598 2°56.108 127 -999 177 8.9
2005-06-02 08:18:49 51°13.598 2°56.107 127 -999 10 8.8
2005-06-02 08:19:49 51°13.597 2°56.107 127 -999 30 8.8
2005-06-02 08:20:49 51°13.598 2°56.107 127 -999 298 8.8
2005-06-02 08:21:49 51°13.598 2°56.108 127.1 -999 305 8.9
2005-06-02 08:22:49 51°13.598 2°56.108 127.1 -999 291 8.9
2005-06-02 08:23:49 51°13.598 2°56.107 127.1 -999 89 8.8
2005-06-02 08:24:49 51°13.598 2°56.107 127.2 -999 328 8.8
2005-06-02 08:25:49 51°13.598 2°56.107 126.8 -999 29 8.8
2005-06-02 08:26:49 51°13.597 2°56.107 126.8 -999 42 8.9
2005-06-02 08:27:49 51°13.597 2°56.108 126.7 -999 100 8.8
2005-06-02 08:28:49 51°13.597 2°56.109 126.9 -999 137 8.8
2005-06-02 08:29:49 51°13.598 2°56.108 126.9 -999 267 8.8
2005-06-02 08:30:49 51°13.599 2°56.108 126.8 -999 83 8.8
2005-06-02 08:31:49 51°13.598 2°56.109 126.9 -999 333 8.8
2005-06-02 08:32:49 51°13.598 2°56.108 127 -999 344 8.8
2005-06-02 08:33:50 51°13.598 2°56.108 126.3 -999 122 8.8
2005-06-02 08:34:49 51°13.599 2°56.108 126.2 -999 111 8.9
2005-06-02 08:35:49 51°13.599 2°56.108 126.3 -999 344 8.9
2005-06-02 08:36:49 51°13.599 2°56.107 126.4 -999 205 8.8
2005-06-02 08:37:49 51°13.599 2°56.107 126.7 -999 345 8.8
2005-06-02 08:38:49 51°13.599 2°56.108 126.7 -999 279 8.8
2005-06-02 08:39:49 51°13.599 2°56.108 126.7 -999 295 8.8
2005-06-02 08:40:49 51°13.599 2°56.108 126.7 -999 124 8.8
2005-06-02 08:41:49 51°13.599 2°56.107 126.7 -999 145 8.8
2005-06-02 08:42:49 51°13.599 2°56.108 126.8 -999 20 8.8
2005-06-02 08:43:49 51°13.599 2°56.108 126.8 -999 46 8.8
2005-06-02 08:44:49 51°13.599 2°56.108 126.7 -999 341 8.8
2005-06-02 08:45:49 51°13.599 2°56.108 126.7 -999 209 8.8
2005-06-02 08:46:49 51°13.599 2°56.108 127 -999 307 8.9
2005-06-02 08:47:49 51°13.597 2°56.108 127 -999 170 8.9
2005-06-02 08:48:49 51°13.598 2°56.108 126.9 -999 303 8.8
2005-06-02 08:49:49 51°13.598 2°56.108 126.9 -999 95 8.9
2005-06-02 08:50:49 51°13.597 2°56.108 126.9 0.1 121 8.8
2005-06-02 08:51:49 51°13.598 2°56.108 127 -999 352 8.8
2005-06-02 08:52:49 51°13.598 2°56.108 126.8 -999 348 8.8
2005-06-02 08:53:49 51°13.598 2°56.108 126.8 -999 329 8.8
2005-06-02 08:54:49 51°13.598 2°56.108 126.7 -999 156 8.8
2005-06-02 08:55:49 51°13.598 2°56.108 126.7 -999 38 8.8
2005-06-02 08:56:49 51°13.598 2°56.108 126.8 -999 38 8.8
2005-06-02 08:57:48 51°13.598 2°56.108 126.8 -999 335 8.8
2005-06-02 08:58:49 51°13.598 2°56.108 126.9 -999 310 8.8
2005-06-02 08:59:49 51°13.598 2°56.108 126.7 -999 6 8.8
2005-06-02 09:00:49 51°13.598 2°56.108 126.6 -999 301 8.9
2005-06-02 09:01:49 51°13.598 2°56.108 126.6 -999 312 8.8
2005-06-02 09:02:49 51°13.598 2°56.108 126.8 -999 346 8.8
2005-06-02 09:03:49 51°13.598 2°56.108 126.8 -999 331 8.8
2005-06-02 09:04:49 51°13.598 2°56.107 126.7 -999 281 8.8
2005-06-02 09:05:49 51°13.598 2°56.107 126.6 -999 176 8.8
2005-06-02 09:06:49 51°13.598 2°56.107 126.4 -999 328 8.9
2005-06-02 09:07:49 51°13.598 2°56.108 126.2 -999 33 8.8
2005-06-02 09:08:49 51°13.598 2°56.108 126 -999 265 8.9
2005-06-02 09:09:49 51°13.598 2°56.108 126.4 -999 115 8.9
2005-06-02 09:10:48 51°13.598 2°56.108 126.8 -999 154 8.8
2005-06-02 09:11:49 51°13.598 2°56.108 126.5 -999 252 8.8
2005-06-02 09:12:49 51°13.598 2°56.107 125.8 -999 262 8.8
2005-06-02 09:13:49 51°13.598 2°56.108 125.2 -999 64 8.8
2005-06-02 09:14:49 51°13.598 2°56.108 126.6 -999 341 8.9
2005-06-02 09:15:50 51°13.598 2°56.108 126.2 -999 58 8.8
2005-06-02 09:16:49 51°13.598 2°56.108 125.4 -999 33 8.8
2005-06-02 09:17:49 51°13.598 2°56.108 125.3 -999 62 8.8
2005-06-02 09:18:49 51°13.598 2°56.108 125.5 -999 269 8.8
2005-06-02 09:19:49 51°13.598 2°56.107 125.2 -999 300 8.8
2005-06-02 09:20:49 51°13.598 2°56.108 125.2 -999 347 8.8
2005-06-02 09:21:49 51°13.598 2°56.108 127.2 -999 170 8.8
2005-06-02 09:22:49 51°13.598 2°56.109 125.5 0.1 293 8.7
2005-06-02 09:23:49 51°13.598 2°56.109 123.2 -999 220 8.8
2005-06-02 09:24:49 51°13.597 2°56.103 109.5 1 280 8.8
2005-06-02 09:25:49 51°13.604 2°56.078 121.1 0.8 101 -999
2005-06-02 09:26:50 51°13.57 2°56.168 127.1 4.6 124 9.8
2005-06-02 09:27:50 51°13.529 2°56.246 145.5 3.7 137 11.4
2005-06-02 09:28:50 51°13.535 2°56.25 175.9 0.5 167 -999
2005-06-02 09:29:50 51°13.526 2°56.255 220.1 1.3 43 4.9
2005-06-02 09:30:50 51°13.521 2°56.231 263.7 2.4 259 -999
2005-06-02 09:31:50 51°13.538 2°56.172 309.1 2.3 300 11.2
2005-06-02 09:32:50 51°13.573 2°56.095 309.9 3.9 307 11
2005-06-02 09:33:50 51°13.613 2°56.01 309.6 4 307 12
2005-06-02 09:34:50 51°13.653 2°55.921 308.4 4.2 305 12.1
2005-06-02 09:35:50 51°13.692 2°55.836 307.6 4 305 11.5
2005-06-02 09:36:50 51°13.739 2°55.74 314.4 5.8 312 12.9
2005-06-02 09:37:50 51°13.842 2°55.63 337.4 7.6 334 11.8
2005-06-02 09:38:50 51°13.965 2°55.54 340.6 8 338 4.9
2005-06-02 09:39:50 51°14.085 2°55.447 336.2 8.4 333 5.1
2005-06-02 09:40:50 51°14.22 2°55.316 328.9 10.3 325 12.3
2005-06-02 09:41:50 51°14.348 2°55.11 313 11.2 308 12.4
2005-06-02 09:42:50 51°14.499 2°55.011 5.3 8.6 3 12.2
2005-06-02 09:43:49 51°14.595 2°55.043 9.8 4.8 12 12
2005-06-02 09:44:50 51°14.661 2°55.069 5.1 4 13 11.6
2005-06-02 09:45:50 51°14.715 2°55.1 5 3.3 20 11.5
2005-06-02 09:46:50 51°14.769 2°55.125 354.7 4.3 9 11.5
2005-06-02 09:47:49 51°14.864 2°55.121 345.5 7.1 350 11.2
2005-06-02 09:48:50 51°14.997 2°54.974 317.1 11.3 320 11
2005-06-02 09:49:50 51°15.149 2°54.762 318.8 12.6 319 10.3
2005-06-02 09:50:50 51°15.312 2°54.539 321.8 12.9 321 11
2005-06-02 09:51:50 51°15.483 2°54.325 322.2 13.2 321 11.6
2005-06-02 09:52:49 51°15.655 2°54.111 321.7 13.1 323 12.3
2005-06-02 09:53:50 51°15.831 2°53.901 322.5 13.1 324 13
2005-06-02 09:54:50 51°16.021 2°53.722 330.7 13.3 331 13.2
2005-06-02 09:55:50 51°16.213 2°53.544 329.5 13.4 330 13.6
2005-06-02 09:56:50 51°16.407 2°53.373 333.1 13.3 331 13.8
2005-06-02 09:57:50 51°16.61 2°53.226 334.9 13.4 335 13.6
2005-06-02 09:58:50 51°16.809 2°53.075 334.5 13.4 335 12.5
2005-06-02 09:59:50 51°17.007 2°52.922 332.3 13.2 331 10.9
2005-06-02 10:00:50 51°17.161 2°52.684 308.4 12.8 309 11.6
2005-06-02 10:01:50 51°17.295 2°52.416 308.6 12.9 309 12.2
2005-06-02 10:02:50 51°17.437 2°52.157 314.6 13.1 314 12.4
2005-06-02 10:03:50 51°17.591 2°51.912 316.6 13.1 317 12.4
2005-06-02 10:04:50 51°17.744 2°51.666 315 13.2 315 12
2005-06-02 10:05:50 51°17.894 2°51.413 314.7 13.2 314 12.5
2005-06-02 10:06:50 51°18.047 2°51.166 315.4 13.2 315 13.6
2005-06-02 10:07:50 51°18.199 2°50.918 315 12.9 313 14.7
2005-06-02 10:08:50 51°18.35 2°50.673 316 13.1 315 15.6
2005-06-02 10:09:50 51°18.501 2°50.424 315.1 13.1 314 16
2005-06-02 10:10:50 51°18.654 2°50.176 315.7 13 315 15.9
2005-06-02 10:11:50 51°18.805 2°49.926 315.9 13.1 314 14.4
2005-06-02 10:12:50 51°18.957 2°49.678 315.7 13 314 12.7
2005-06-02 10:13:50 51°19.107 2°49.429 314.4 13 314 14.1
2005-06-02 10:14:50 51°19.262 2°49.184 315.2 13.1 315 15.3
2005-06-02 10:15:50 51°19.42 2°48.943 315.1 13 317 17.8
2005-06-02 10:16:50 51°19.575 2°48.699 315.1 13.1 315 20.1
2005-06-02 10:17:50 51°19.729 2°48.457 315.1 12.9 315 22.5
2005-06-02 10:18:50 51°19.885 2°48.216 315.5 13 316 23.6
2005-06-02 10:19:50 51°20.04 2°47.974 315 12.9 315 23.8
2005-06-02 10:20:50 51°20.192 2°47.727 315.6 13.2 314 23.1
2005-06-02 10:21:49 51°20.345 2°47.482 314.5 13.1 314 20.9
2005-06-02 10:22:50 51°20.5 2°47.235 315.3 13 314 19.6
2005-06-02 10:23:50 51°20.655 2°46.991 315.7 13 316 19.2
2005-06-02 10:24:50 51°20.822 2°46.772 329.8 13.2 330 21.9
2005-06-02 10:25:50 51°21 2°46.573 326.8 13.2 328 23.6
2005-06-02 10:26:50 51°21.189 2°46.391 328.8 13.2 330 26.4
2005-06-02 10:27:50 51°21.386 2°46.225 331 13.4 334 26.7
2005-06-02 10:28:50 51°21.582 2°46.077 332.1 12.8 333 26.7
2005-06-02 10:29:50 51°21.767 2°45.969 344.5 10.8 345 24.7
2005-06-02 10:30:50 51°21.899 2°45.913 338.2 7.3 343 23.4
2005-06-02 10:31:50 51°22.008 2°45.887 346 5.8 355 22.8
2005-06-02 10:32:50 51°22.095 2°45.874 342.4 4.9 353 22.4
2005-06-02 10:33:50 51°22.242 2°45.78 332.1 12.5 332 23.2
2005-06-02 10:34:50 51°22.42 2°45.574 318.3 13.2 318 24.6
2005-06-02 10:35:50 51°22.565 2°45.316 309.1 13 310 25.8
2005-06-02 10:36:50 51°22.705 2°45.051 309.8 13.1 311 27.9
2005-06-02 10:37:50 51°22.848 2°44.79 310.3 13 311 26
2005-06-02 10:38:50 51°22.994 2°44.534 311 13.1 311 28
2005-06-02 10:39:50 51°23.142 2°44.28 312.1 13.1 313 27.8
2005-06-02 10:40:50 51°23.29 2°44.029 312.7 13.1 315 28.5
2005-06-02 10:41:50 51°23.438 2°43.775 312.5 13 313 27.5
2005-06-02 10:42:50 51°23.587 2°43.523 312.5 13 314 27.8
2005-06-02 10:43:50 51°23.71 2°43.247 299.7 12.6 302 23.9
2005-06-02 10:44:50 51°23.818 2°42.959 299.6 12.6 300 25.6
2005-06-02 10:45:50 51°23.924 2°42.665 297.3 12.8 297 28
2005-06-02 10:46:50 51°24.025 2°42.367 296.8 12.6 298 26
2005-06-02 10:47:50 51°24.124 2°42.07 296.8 12.7 298 26.8
2005-06-02 10:48:50 51°24.223 2°41.768 297.4 12.8 299 27.8
2005-06-02 10:49:50 51°24.325 2°41.471 297.2 12.6 299 24.4
2005-06-02 10:50:50 51°24.422 2°41.166 293.8 12.8 295 28
2005-06-02 10:51:50 51°24.512 2°40.861 294.6 12.7 296 24.8
2005-06-02 10:52:50 51°24.594 2°40.553 290.3 12.7 291 28
2005-06-02 10:53:50 51°24.675 2°40.238 291 12.7 293 25.6
2005-06-02 10:54:50 51°24.751 2°39.924 288.8 12.6 291 26.5
2005-06-02 10:55:50 51°24.823 2°39.611 286.9 12.5 289 26.1
2005-06-02 10:56:50 51°24.888 2°39.291 286.8 12.6 288 28.5
2005-06-02 10:57:50 51°24.952 2°38.972 287.4 12.6 287 29.6
2005-06-02 10:58:50 51°25.019 2°38.65 287.3 12.9 288 31.4
2005-06-02 10:59:50 51°25.088 2°38.327 286.4 12.8 289 32
2005-06-02 11:00:50 51°25.159 2°38.011 287.3 12.5 288 32.1
2005-06-02 11:01:50 51°25.224 2°37.695 287 12.6 289 32.3
2005-06-02 11:02:50 51°25.291 2°37.383 286.9 11.8 289 32.4
2005-06-02 11:03:50 51°25.355 2°37.108 288.9 11 292 34
2005-06-02 11:04:50 51°25.416 2°36.833 287.7 11.1 291 34.7
2005-06-02 11:05:50 51°25.478 2°36.557 286.7 11 291 35.1
2005-06-02 11:06:50 51°25.529 2°36.309 277.2 6.9 282 33.5
2005-06-02 11:07:50 51°25.518 2°36.232 224.3 1.8 208 34.5
2005-06-02 11:08:50 51°25.495 2°36.256 168.3 2 116 33.6
2005-06-02 11:09:50 51°25.5 2°36.301 162.8 1.9 41 33.6
2005-06-02 11:10:50 51°25.519 2°36.34 156.7 1.9 69 32.3
2005-06-02 11:11:50 51°25.518 2°36.387 174.3 2.2 131 33.6
2005-06-02 11:12:50 51°25.491 2°36.374 242.2 1.9 248 32.8
2005-06-02 11:13:50 51°25.504 2°36.347 277.9 1.2 352 33.3
2005-06-02 11:14:50 51°25.528 2°36.353 293.7 1.5 15 33.4
2005-06-02 11:15:50 51°25.554 2°36.374 303.3 1.9 33 33.5
2005-06-02 11:16:50 51°25.593 2°36.367 316.7 2.4 357 33.5
2005-06-02 11:17:50 51°25.628 2°36.367 308.7 1.9 358 33.7
2005-06-02 11:18:50 51°25.661 2°36.354 300.3 3.4 321 34.3
2005-06-02 11:19:50 51°25.707 2°36.284 307.1 3.7 326 34
2005-06-02 11:20:50 51°25.744 2°36.26 304.4 1.8 8 34.2
2005-06-02 11:21:50 51°25.767 2°36.276 298.5 1.4 31 34.5
2005-06-02 11:22:50 51°25.791 2°36.303 308.5 1.7 38 33.5
2005-06-02 11:23:50 51°25.811 2°36.334 322.9 1.6 42 33.7
2005-06-02 11:24:50 51°25.842 2°36.349 322.2 3.2 344 33.3
2005-06-02 11:25:50 51°25.857 2°36.231 248.2 5.5 248 32.9
2005-06-02 11:26:50 51°25.767 2°36.145 204.6 7.2 199 32.9
2005-06-02 11:27:50 51°25.693 2°36.112 205.8 3 191 33.3
2005-06-02 11:28:50 51°25.663 2°36.109 207 1 171 33.5
2005-06-02 11:29:50 51°25.654 2°36.124 206.4 0.8 126 33.7
2005-06-02 11:30:50 51°25.648 2°36.142 206.8 0.9 145 33.5
2005-06-02 11:31:50 51°25.633 2°36.146 211 1 184 33.6
2005-06-02 11:32:50 51°25.612 2°36.139 214.2 1.4 192 33.3
2005-06-02 11:33:50 51°25.589 2°36.133 212.3 1.1 176 33.1
2005-06-02 11:34:50 51°25.573 2°36.134 211.6 0.9 184 33
2005-06-02 11:35:50 51°25.556 2°36.143 194 1.2 150 33.1
2005-06-02 11:36:50 51°25.522 2°36.131 228.3 2.8 220 33.1
2005-06-02 11:37:50 51°25.535 2°36.079 290.1 1.5 346 32.6
2005-06-02 11:38:50 51°25.563 2°36.083 306.8 1.7 11 32.8
2005-06-02 11:39:50 51°25.589 2°36.098 307.7 1.7 20 33.1
2005-06-02 11:40:50 51°25.613 2°36.124 317.9 1.7 35 33.3
2005-06-02 11:41:50 51°25.642 2°36.141 317.5 2.4 349 33.1
2005-06-02 11:42:50 51°25.674 2°36.081 273.3 3.3 290 33.5
2005-06-02 11:43:50 51°25.667 2°36.01 240.5 1.9 249 33
2005-06-02 11:44:50 51°25.656 2°35.984 215.5 0.8 203 33.2
2005-06-02 11:45:50 51°25.615 2°35.992 186.8 3.3 169 32.8
2005-06-02 11:46:50 51°25.572 2°36.061 149.8 3.4 129 32.9
2005-06-02 11:47:50 51°25.553 2°36.119 158 2.1 110 32.5
2005-06-02 11:48:50 51°25.526 2°36.173 161.3 3.1 139 33.3
2005-06-02 11:49:50 51°25.5 2°36.225 152 2.9 120 33.3
2005-06-02 11:50:50 51°25.495 2°36.291 132.8 2.2 92 32.9
2005-06-02 11:51:50 51°25.508 2°36.323 146.8 1.4 56 33.6
2005-06-02 11:52:50 51°25.521 2°36.354 150.4 1.3 57 33.8
2005-06-02 11:53:50 51°25.536 2°36.386 151.9 1.5 54 33.3
2005-06-02 11:54:50 51°25.55 2°36.416 153.3 1.5 53 32.7
2005-06-02 11:55:50 51°25.563 2°36.447 152.5 1.4 56 33
2005-06-02 11:56:50 51°25.577 2°36.48 153.8 1.4 55 33.2
2005-06-02 11:57:50 51°25.558 2°36.521 179 2.8 145 32.9
2005-06-02 11:58:50 51°25.514 2°36.509 214.2 2.4 200 32.8
2005-06-02 11:59:50 51°25.484 2°36.471 231.9 2.5 232 33
2005-06-02 12:00:50 51°25.48 2°36.412 264.2 2 285 32.8
2005-06-02 12:01:50 51°25.5 2°36.376 286 1.7 325 32.8
2005-06-02 12:02:50 51°25.514 2°36.338 247.2 1.4 273 32.4
2005-06-02 12:03:50 51°25.522 2°36.333 239.9 0.8 12 32.9
2005-06-02 12:04:50 51°25.536 2°36.341 251.2 0.8 16 33.3
2005-06-02 12:05:50 51°25.548 2°36.34 245.3 0.7 2 32.6
2005-06-02 12:06:50 51°25.539 2°36.323 217.1 2 210 33.1
2005-06-02 12:07:50 51°25.518 2°36.316 212.6 1.4 197 32.7
2005-06-02 12:08:50 51°25.507 2°36.325 199.2 0.6 110 33.1
2005-06-02 12:09:50 51°25.512 2°36.348 194.8 1.2 61 32.6
2005-06-02 12:10:50 51°25.523 2°36.377 173.9 1.4 63 33
2005-06-02 12:11:50 51°25.524 2°36.411 170.6 1.7 130 32.7
2005-06-02 12:12:50 51°25.46 2°36.414 188.4 6.2 182 32
2005-06-02 12:13:50 51°25.334 2°36.547 127.5 11.3 121 34.5
2005-06-02 12:14:50 51°25.211 2°36.829 131.5 13.2 126 33.3
2005-06-02 12:15:50 51°25.086 2°37.119 131.2 13.2 124 33.2
2005-06-02 12:16:50 51°24.967 2°37.416 124.4 13.3 115 30.7
2005-06-02 12:17:50 51°24.858 2°37.725 125.2 13.3 119 30.8
2005-06-02 12:18:50 51°24.753 2°38.031 124.7 13.3 119 30.8
2005-06-02 12:19:50 51°24.625 2°38.32 132 13.4 126 27.4
2005-06-02 12:20:50 51°24.496 2°38.606 130.1 13.1 128 23.6
2005-06-02 12:21:50 51°24.37 2°38.895 127.7 13.5 120 27.7
2005-06-02 12:22:50 51°24.244 2°39.191 130.9 13.4 127 25.6
2005-06-02 12:23:50 51°24.119 2°39.492 130 13.9 124 26.2
2005-06-02 12:24:50 51°23.998 2°39.787 131.3 12.9 123 26.8
2005-06-02 12:25:50 51°23.889 2°40.092 126.8 13.1 117 28.4
2005-06-02 12:26:50 51°23.784 2°40.401 123.6 13.1 118 27.1
2005-06-02 12:27:50 51°23.677 2°40.71 124.8 13.3 118 29.2
2005-06-02 12:28:50 51°23.567 2°41.019 127.7 13.3 125 28.9
2005-06-02 12:29:50 51°23.464 2°41.337 118.7 13.4 114 28.8
2005-06-02 12:30:50 51°23.391 2°41.677 112.3 13.6 107 27.8
2005-06-02 12:31:50 51°23.326 2°42.018 112.3 13.4 111 27.7
2005-06-02 12:32:50 51°23.272 2°42.274 116.5 8.2 107 27.1
2005-06-02 12:33:50 51°23.221 2°42.517 114.3 11 108 26.6
2005-06-02 12:34:50 51°23.161 2°42.75 120.6 7.8 115 26.2
2005-06-02 12:35:50 51°23.078 2°42.99 124.6 11.5 119 26
2005-06-02 12:36:50 51°22.969 2°43.238 130.3 10.6 126 25.6
2005-06-02 12:37:50 51°22.879 2°43.378 157.2 6.8 152 26.4
2005-06-02 12:38:50 51°22.763 2°43.426 175.5 7.3 172 25.3
2005-06-02 12:39:50 51°22.63 2°43.508 154.8 9.1 151 24.8
2005-06-02 12:40:50 51°22.529 2°43.684 125 8.1 119 26.1
2005-06-02 12:41:50 51°22.498 2°43.852 107.5 5.4 100 24.6
2005-06-02 12:42:50 51°22.503 2°43.987 80.5 5.5 75 26.1
2005-06-02 12:43:50 51°22.492 2°44.126 117.1 5.2 107 5.1
2005-06-02 12:44:50 51°22.424 2°44.312 122.1 10.3 116 26
2005-06-02 12:45:50 51°22.315 2°44.594 126.3 13.2 124 25.2
2005-06-02 12:46:50 51°22.183 2°44.87 135.6 13.1 130 23.4
2005-06-02 12:47:50 51°22.032 2°45.12 140.8 13.2 135 22.3
2005-06-02 12:48:50 51°21.87 2°45.357 141.7 13.2 138 21.6
2005-06-02 12:49:50 51°21.711 2°45.596 140.2 13.1 138 22.9
2005-06-02 12:50:50 51°21.554 2°45.843 140.9 13.3 137 24.7
2005-06-02 12:51:50 51°21.395 2°46.087 139.3 13.3 135 25.3
2005-06-02 12:52:50 51°21.237 2°46.333 140.8 13.1 138 24.4
2005-06-02 12:53:49 51°21.078 2°46.572 139.3 13 138 22.2
2005-06-02 12:54:50 51°20.922 2°46.812 140.7 12.6 136 19.7
2005-06-02 12:55:50 51°20.76 2°47.038 143.3 12.7 141 17.5
2005-06-02 12:56:50 51°20.598 2°47.261 142.5 13 135 17.3
2005-06-02 12:57:50 51°20.433 2°47.486 142.2 13.1 134 18.7
2005-06-02 12:58:50 51°20.267 2°47.711 138.3 13 139 20.5
2005-06-02 12:59:50 51°20.138 2°47.99 129.9 13.4 130 21.7
2005-06-02 13:00:50 51°20.004 2°48.273 129.4 13.4 125 21.8
2005-06-02 13:01:50 51°19.874 2°48.551 132.7 12.8 130 21.5
2005-06-02 13:02:50 51°19.746 2°48.822 132 12.7 127 19.2
2005-06-02 13:03:50 51°19.618 2°49.089 131.9 12.6 129 17.1
2005-06-02 13:04:50 51°19.487 2°49.357 132.5 12.8 128 14.7
2005-06-02 13:05:50 51°19.355 2°49.625 132 13 128 12.8
2005-06-02 13:06:50 51°19.223 2°49.891 130.3 12.7 127 10.9
2005-06-02 13:07:50 51°19.091 2°50.159 131.7 12.7 129 12
2005-06-02 13:08:50 51°18.956 2°50.429 130.4 13 126 13.5
2005-06-02 13:09:50 51°18.815 2°50.702 134.2 13.5 130 14.2
2005-06-02 13:10:50 51°18.638 2°50.91 153.3 13.2 156 14
2005-06-02 13:11:50 51°18.425 2°51.014 165.8 13.2 163 13.3
2005-06-02 13:12:50 51°18.21 2°51.113 165.6 13.2 164 12.3
2005-06-02 13:13:50 51°18.002 2°51.215 163.8 13.1 167 11.2
2005-06-02 13:14:50 51°17.793 2°51.318 162.9 13 161 10.1
2005-06-02 13:15:50 51°17.586 2°51.419 164.5 13.1 163 9.3
2005-06-02 13:16:50 51°17.391 2°51.521 162 10.3 162 10.8
2005-06-02 13:17:50 51°17.309 2°51.613 125.2 3.7 127 11.1
2005-06-02 13:18:50 51°17.284 2°51.639 159.4 1.2 164 11.1
2005-06-02 13:19:50 51°17.265 2°51.645 172 1.1 172 11.1
2005-06-02 13:20:50 51°17.179 2°51.691 157 9.1 156 10.7
2005-06-02 13:21:50 51°16.997 2°51.847 154.2 13.2 151 10.1
2005-06-02 13:22:50 51°16.806 2°52.01 154.2 13 152 9.9
2005-06-02 13:23:50 51°16.611 2°52.166 154.3 13 155 10.1
2005-06-02 13:24:50 51°16.412 2°52.315 154.7 13.4 154 11.4
2005-06-02 13:25:50 51°16.212 2°52.465 154.4 13.5 155 11.8
2005-06-02 13:26:50 51°16.014 2°52.612 155 13.3 157 11.7
2005-06-02 13:27:50 51°15.814 2°52.755 155.1 13.2 161 11.4
2005-06-02 13:28:50 51°15.633 2°52.944 143.4 13 145 11
2005-06-02 13:29:50 51°15.453 2°53.139 145.2 12.9 146 10.4
2005-06-02 13:30:50 51°15.271 2°53.329 143.1 12.9 145 9.7
2005-06-02 13:31:50 51°15.096 2°53.532 140.7 12.9 143 9.2
2005-06-02 13:32:50 51°14.929 2°53.749 137.7 13.2 139 9
2005-06-02 13:33:50 51°14.769 2°53.982 134.9 12.5 135 9.2
2005-06-02 13:34:50 51°14.643 2°54.255 123.3 12.9 125 9.9
2005-06-02 13:35:50 51°14.561 2°54.548 115.9 11.5 118 9.7
2005-06-02 13:36:50 51°14.462 2°54.804 118.5 11.2 121 9.9
2005-06-02 13:37:50 51°14.366 2°55.057 122.7 11 122 9.7
2005-06-02 13:38:50 51°14.282 2°55.223 133.9 7.2 132 10.4
2005-06-02 13:39:50 51°14.214 2°55.324 143.4 5.5 142 9.7
2005-06-02 13:40:50 51°14.122 2°55.415 152.6 7.1 151 -999
2005-06-02 13:41:50 51°14.016 2°55.498 157.1 6.7 154 8.9
2005-06-02 13:42:50 51°13.93 2°55.558 157.4 4.9 155 9
2005-06-02 13:43:50 51°13.866 2°55.605 158.1 3.9 157 9.6
2005-06-02 13:44:50 51°13.814 2°55.645 152.4 3.4 149 9.4
2005-06-02 13:45:50 51°13.759 2°55.715 138.2 5.4 136 9
2005-06-02 13:46:50 51°13.702 2°55.823 127.4 5.3 126 9.3
2005-06-02 13:47:50 51°13.66 2°55.929 125 4.4 122 9.2
2005-06-02 13:48:50 51°13.627 2°56.013 123.9 3.5 122 8.6
2005-06-02 13:49:50 51°13.604 2°56.087 116.5 2.9 114 6.6